sensor_id;sensor_type;location;lat;lon;timestamp;temperature;humidity
37460;DHT22;23318;50.966;5.284;2022-12-29T00:02:12;11.30;99.90
37460;DHT22;23318;50.966;5.284;2022-12-29T00:04:38;11.30;99.90
37460;DHT22;23318;50.966;5.284;2022-12-29T00:07:04;11.20;99.90
37460;DHT22;23318;50.966;5.284;2022-12-29T00:09:30;11.30;99.90
37460;DHT22;23318;50.966;5.284;2022-12-29T00:11:57;11.30;99.90
37460;DHT22;23318;50.966;5.284;2022-12-29T00:14:23;11.40;99.90
37460;DHT22;23318;50.966;5.284;2022-12-29T00:17:08;11.40;99.90
37460;DHT22;23318;50.966;5.284;2022-12-29T00:19:34;11.50;99.90
37460;DHT22;23318;50.966;5.284;2022-12-29T00:22:18;11.50;99.90
37460;DHT22;23318;50.966;5.284;2022-12-29T00:25:03;11.60;99.90
37460;DHT22;23318;50.966;5.284;2022-12-29T00:27:47;11.60;99.90
37460;DHT22;23318;50.966;5.284;2022-12-29T00:30:31;11.80;99.90
37460;DHT22;23318;50.966;5.284;2022-12-29T00:33:18;11.90;99.90
37460;DHT22;23318;50.966;5.284;2022-12-29T00:36:13;11.90;99.90
37460;DHT22;23318;50.966;5.284;2022-12-29T00:38:48;12.00;99.90
37460;DHT22;23318;50.966;5.284;2022-12-29T00:41:33;12.00;99.90
37460;DHT22;23318;50.966;5.284;2022-12-29T00:44:18;12.00;99.90
37460;DHT22;23318;50.966;5.284;2022-12-29T00:46:44;12.00;99.90
37460;DHT22;23318;50.966;5.284;2022-12-29T00:49:12;12.00;99.90
37460;DHT22;23318;50.966;5.284;2022-12-29T00:52:01;12.00;99.90
37460;DHT22;23318;50.966;5.284;2022-12-29T00:54:32;12.10;99.90
37460;DHT22;23318;50.966;5.284;2022-12-29T00:56:58;12.00;99.90
37460;DHT22;23318;50.966;5.284;2022-12-29T00:59:25;12.00;99.90
37460;DHT22;23318;50.966;5.284;2022-12-29T01:01:51;12.00;99.90
37460;DHT22;23318;50.966;5.284;2022-12-29T01:04:18;12.00;99.90
37460;DHT22;23318;50.966;5.284;2022-12-29T01:06:44;12.00;99.90
37460;DHT22;23318;50.966;5.284;2022-12-29T01:09:10;12.00;99.90
37460;DHT22;23318;50.966;5.284;2022-12-29T01:11:55;12.00;99.90
37460;DHT22;23318;50.966;5.284;2022-12-29T01:14:21;12.00;99.90
37460;DHT22;23318;50.966;5.284;2022-12-29T01:16:47;12.00;99.90
37460;DHT22;23318;50.966;5.284;2022-12-29T01:19:14;12.00;99.90
37460;DHT22;23318;50.966;5.284;2022-12-29T01:21:40;12.00;99.90
37460;DHT22;23318;50.966;5.284;2022-12-29T01:24:06;12.00;99.90
37460;DHT22;23318;50.966;5.284;2022-12-29T01:26:32;12.10;99.90
37460;DHT22;23318;50.966;5.284;2022-12-29T01:28:58;12.00;99.90
37460;DHT22;23318;50.966;5.284;2022-12-29T01:31:24;12.10;99.90
37460;DHT22;23318;50.966;5.284;2022-12-29T01:33:50;12.00;99.90
37460;DHT22;23318;50.966;5.284;2022-12-29T01:36:16;12.10;99.90
37460;DHT22;23318;50.966;5.284;2022-12-29T01:38:43;12.10;99.90
37460;DHT22;23318;50.966;5.284;2022-12-29T01:41:10;12.10;99.90
37460;DHT22;23318;50.966;5.284;2022-12-29T01:46:31;12.10;99.90
37460;DHT22;23318;50.966;5.284;2022-12-29T01:49:13;12.20;99.90
37460;DHT22;23318;50.966;5.284;2022-12-29T01:52:00;12.30;99.90
37460;DHT22;23318;50.966;5.284;2022-12-29T01:54:43;12.20;99.90
37460;DHT22;23318;50.966;5.284;2022-12-29T01:57:15;12.00;99.90
37460;DHT22;23318;50.966;5.284;2022-12-29T01:59:57;11.80;99.90
37460;DHT22;23318;50.966;5.284;2022-12-29T02:02:25;11.50;99.90
37460;DHT22;23318;50.966;5.284;2022-12-29T02:04:52;11.50;99.90
37460;DHT22;23318;50.966;5.284;2022-12-29T02:07:21;11.50;99.90
37460;DHT22;23318;50.966;5.284;2022-12-29T02:09:49;11.40;99.90
37460;DHT22;23318;50.966;5.284;2022-12-29T02:12:19;11.30;99.90
37460;DHT22;23318;50.966;5.284;2022-12-29T02:14:46;11.20;99.90
37460;DHT22;23318;50.966;5.284;2022-12-29T02:34:10;11.40;99.90
37460;DHT22;23318;50.966;5.284;2022-12-29T02:36:46;11.50;99.90
37460;DHT22;23318;50.966;5.284;2022-12-29T02:45:13;11.50;99.90
37460;DHT22;23318;50.966;5.284;2022-12-29T02:48:01;11.30;99.90
37460;DHT22;23318;50.966;5.284;2022-12-29T02:50:41;11.20;99.90
37460;DHT22;23318;50.966;5.284;2022-12-29T02:53:14;11.20;99.90
37460;DHT22;23318;50.966;5.284;2022-12-29T02:55:51;11.00;99.90
37460;DHT22;23318;50.966;5.284;2022-12-29T02:58:19;11.00;99.90
37460;DHT22;23318;50.966;5.284;2022-12-29T03:01:18;11.00;99.90
37460;DHT22;23318;50.966;5.284;2022-12-29T03:15:00;10.90;99.90
37460;DHT22;23318;50.966;5.284;2022-12-29T03:17:57;11.00;99.90
37460;DHT22;23318;50.966;5.284;2022-12-29T03:20:27;11.00;99.90
37460;DHT22;23318;50.966;5.284;2022-12-29T03:22:59;11.00;99.90
37460;DHT22;23318;50.966;5.284;2022-12-29T03:25:58;11.00;99.90
37460;DHT22;23318;50.966;5.284;2022-12-29T03:28:31;11.00;99.90
37460;DHT22;23318;50.966;5.284;2022-12-29T03:30:58;11.10;99.90
37460;DHT22;23318;50.966;5.284;2022-12-29T03:33:27;11.10;99.90
37460;DHT22;23318;50.966;5.284;2022-12-29T03:35:57;11.10;99.90
37460;DHT22;23318;50.966;5.284;2022-12-29T03:38:30;11.10;99.90
37460;DHT22;23318;50.966;5.284;2022-12-29T03:40:58;11.20;99.90
37460;DHT22;23318;50.966;5.284;2022-12-29T03:43:26;11.20;99.90
37460;DHT22;23318;50.966;5.284;2022-12-29T03:45:52;11.20;99.90
37460;DHT22;23318;50.966;5.284;2022-12-29T03:48:18;11.30;99.90
37460;DHT22;23318;50.966;5.284;2022-12-29T03:50:43;11.20;99.90
37460;DHT22;23318;50.966;5.284;2022-12-29T03:53:09;11.10;99.90
37460;DHT22;23318;50.966;5.284;2022-12-29T03:55:35;11.10;99.90
37460;DHT22;23318;50.966;5.284;2022-12-29T03:58:00;11.00;99.90
37460;DHT22;23318;50.966;5.284;2022-12-29T04:00:26;10.80;99.90
37460;DHT22;23318;50.966;5.284;2022-12-29T04:02:52;10.80;99.90
37460;DHT22;23318;50.966;5.284;2022-12-29T04:05:18;10.80;99.90
37460;DHT22;23318;50.966;5.284;2022-12-29T04:07:43;10.80;99.90
37460;DHT22;23318;50.966;5.284;2022-12-29T04:10:09;11.10;99.90
37460;DHT22;23318;50.966;5.284;2022-12-29T04:12:35;11.00;99.90
37460;DHT22;23318;50.966;5.284;2022-12-29T04:15:01;11.00;99.90
37460;DHT22;23318;50.966;5.284;2022-12-29T04:17:26;11.00;99.90
37460;DHT22;23318;50.966;5.284;2022-12-29T04:19:52;10.90;99.90
37460;DHT22;23318;50.966;5.284;2022-12-29T04:22:37;10.80;99.90
37460;DHT22;23318;50.966;5.284;2022-12-29T04:25:03;10.80;99.90
37460;DHT22;23318;50.966;5.284;2022-12-29T04:27:29;10.70;99.90
37460;DHT22;23318;50.966;5.284;2022-12-29T04:29:55;10.70;99.90
37460;DHT22;23318;50.966;5.284;2022-12-29T04:32:20;10.70;99.90
37460;DHT22;23318;50.966;5.284;2022-12-29T04:34:46;10.60;99.90
37460;DHT22;23318;50.966;5.284;2022-12-29T04:37:12;10.60;99.90
37460;DHT22;23318;50.966;5.284;2022-12-29T04:39:38;10.50;99.90
37460;DHT22;23318;50.966;5.284;2022-12-29T04:42:03;10.50;99.90
37460;DHT22;23318;50.966;5.284;2022-12-29T04:44:29;10.40;99.90
37460;DHT22;23318;50.966;5.284;2022-12-29T04:46:55;10.40;99.90
37460;DHT22;23318;50.966;5.284;2022-12-29T04:49:20;10.40;99.90
37460;DHT22;23318;50.966;5.284;2022-12-29T04:51:46;10.40;99.90
37460;DHT22;23318;50.966;5.284;2022-12-29T04:54:12;10.40;99.90
37460;DHT22;23318;50.966;5.284;2022-12-29T04:56:37;10.40;99.90
37460;DHT22;23318;50.966;5.284;2022-12-29T04:59:03;10.40;99.90
37460;DHT22;23318;50.966;5.284;2022-12-29T05:01:29;10.40;99.90
37460;DHT22;23318;50.966;5.284;2022-12-29T05:03:54;10.40;99.90
37460;DHT22;23318;50.966;5.284;2022-12-29T05:06:20;10.40;99.90
37460;DHT22;23318;50.966;5.284;2022-12-29T05:08:46;10.40;99.90
37460;DHT22;23318;50.966;5.284;2022-12-29T05:11:12;10.30;99.90
37460;DHT22;23318;50.966;5.284;2022-12-29T05:13:37;10.50;99.90
37460;DHT22;23318;50.966;5.284;2022-12-29T05:16:03;10.50;99.90
37460;DHT22;23318;50.966;5.284;2022-12-29T05:18:29;10.50;99.90
37460;DHT22;23318;50.966;5.284;2022-12-29T05:20:55;10.70;99.90
37460;DHT22;23318;50.966;5.284;2022-12-29T05:23:21;10.70;99.90
37460;DHT22;23318;50.966;5.284;2022-12-29T05:25:46;10.80;99.90
37460;DHT22;23318;50.966;5.284;2022-12-29T05:28:13;10.90;99.90
37460;DHT22;23318;50.966;5.284;2022-12-29T05:30:39;10.90;99.90
37460;DHT22;23318;50.966;5.284;2022-12-29T05:33:05;10.90;99.90
37460;DHT22;23318;50.966;5.284;2022-12-29T05:35:32;11.00;99.90
37460;DHT22;23318;50.966;5.284;2022-12-29T05:37:58;11.00;99.90
37460;DHT22;23318;50.966;5.284;2022-12-29T05:40:24;11.00;99.90
37460;DHT22;23318;50.966;5.284;2022-12-29T05:42:49;11.00;99.90
37460;DHT22;23318;50.966;5.284;2022-12-29T05:45:15;11.10;99.90
37460;DHT22;23318;50.966;5.284;2022-12-29T05:47:41;11.00;99.90
37460;DHT22;23318;50.966;5.284;2022-12-29T05:50:07;11.10;99.90
37460;DHT22;23318;50.966;5.284;2022-12-29T05:52:33;11.10;99.90
37460;DHT22;23318;50.966;5.284;2022-12-29T05:54:58;11.10;99.90
37460;DHT22;23318;50.966;5.284;2022-12-29T05:57:24;11.10;99.90
37460;DHT22;23318;50.966;5.284;2022-12-29T05:59:50;11.20;99.90
37460;DHT22;23318;50.966;5.284;2022-12-29T06:02:16;11.20;99.90
37460;DHT22;23318;50.966;5.284;2022-12-29T06:04:41;11.20;99.90
37460;DHT22;23318;50.966;5.284;2022-12-29T06:07:07;11.20;99.90
37460;DHT22;23318;50.966;5.284;2022-12-29T06:09:33;11.20;99.90
37460;DHT22;23318;50.966;5.284;2022-12-29T06:11:58;11.10;99.90
37460;DHT22;23318;50.966;5.284;2022-12-29T06:14:24;11.00;99.90
37460;DHT22;23318;50.966;5.284;2022-12-29T06:16:50;11.10;99.90
37460;DHT22;23318;50.966;5.284;2022-12-29T06:19:15;11.10;99.90
37460;DHT22;23318;50.966;5.284;2022-12-29T06:21:41;11.20;99.90
37460;DHT22;23318;50.966;5.284;2022-12-29T06:24:07;11.20;99.90
37460;DHT22;23318;50.966;5.284;2022-12-29T06:26:32;11.10;99.90
37460;DHT22;23318;50.966;5.284;2022-12-29T06:28:58;11.10;99.90
37460;DHT22;23318;50.966;5.284;2022-12-29T06:31:24;11.10;99.90
37460;DHT22;23318;50.966;5.284;2022-12-29T06:33:50;11.10;99.90
37460;DHT22;23318;50.966;5.284;2022-12-29T06:36:15;11.10;99.90
37460;DHT22;23318;50.966;5.284;2022-12-29T06:38:41;11.00;99.90
37460;DHT22;23318;50.966;5.284;2022-12-29T06:41:07;10.90;99.90
37460;DHT22;23318;50.966;5.284;2022-12-29T06:43:33;10.90;99.90
37460;DHT22;23318;50.966;5.284;2022-12-29T06:45:59;10.90;99.90
37460;DHT22;23318;50.966;5.284;2022-12-29T06:48:25;11.00;99.90
37460;DHT22;23318;50.966;5.284;2022-12-29T06:50:50;11.00;99.90
37460;DHT22;23318;50.966;5.284;2022-12-29T06:53:16;11.00;99.90
37460;DHT22;23318;50.966;5.284;2022-12-29T06:55:42;11.10;99.90
37460;DHT22;23318;50.966;5.284;2022-12-29T06:58:08;11.00;99.90
37460;DHT22;23318;50.966;5.284;2022-12-29T07:00:34;11.10;99.90
37460;DHT22;23318;50.966;5.284;2022-12-29T07:03:00;11.00;99.90
37460;DHT22;23318;50.966;5.284;2022-12-29T07:05:26;11.10;99.90
37460;DHT22;23318;50.966;5.284;2022-12-29T07:07:57;11.20;99.90
37460;DHT22;23318;50.966;5.284;2022-12-29T07:10:22;11.20;99.90
37460;DHT22;23318;50.966;5.284;2022-12-29T07:12:48;11.10;99.90
37460;DHT22;23318;50.966;5.284;2022-12-29T07:15:14;11.10;99.90
37460;DHT22;23318;50.966;5.284;2022-12-29T07:17:40;11.10;99.90
37460;DHT22;23318;50.966;5.284;2022-12-29T07:20:06;11.20;99.90
37460;DHT22;23318;50.966;5.284;2022-12-29T07:22:32;11.00;99.90
37460;DHT22;23318;50.966;5.284;2022-12-29T07:24:58;11.10;99.90
37460;DHT22;23318;50.966;5.284;2022-12-29T07:27:24;11.10;99.90
37460;DHT22;23318;50.966;5.284;2022-12-29T07:29:49;11.00;99.90
37460;DHT22;23318;50.966;5.284;2022-12-29T07:32:15;11.10;99.90
37460;DHT22;23318;50.966;5.284;2022-12-29T07:34:41;11.00;99.90
37460;DHT22;23318;50.966;5.284;2022-12-29T07:37:07;10.90;99.90
37460;DHT22;23318;50.966;5.284;2022-12-29T07:39:32;10.80;99.90
37460;DHT22;23318;50.966;5.284;2022-12-29T07:41:58;10.80;99.90
37460;DHT22;23318;50.966;5.284;2022-12-29T07:44:24;10.80;99.90
37460;DHT22;23318;50.966;5.284;2022-12-29T07:46:50;10.70;99.90
37460;DHT22;23318;50.966;5.284;2022-12-29T07:49:15;10.60;99.90
37460;DHT22;23318;50.966;5.284;2022-12-29T07:51:41;10.70;99.90
37460;DHT22;23318;50.966;5.284;2022-12-29T07:54:08;10.70;99.90
37460;DHT22;23318;50.966;5.284;2022-12-29T07:56:33;10.70;99.90
37460;DHT22;23318;50.966;5.284;2022-12-29T07:58:59;10.70;99.90
37460;DHT22;23318;50.966;5.284;2022-12-29T08:01:25;10.70;99.90
37460;DHT22;23318;50.966;5.284;2022-12-29T08:03:51;10.70;99.90
37460;DHT22;23318;50.966;5.284;2022-12-29T08:06:16;10.70;99.90
37460;DHT22;23318;50.966;5.284;2022-12-29T08:08:43;10.70;99.90
37460;DHT22;23318;50.966;5.284;2022-12-29T08:11:09;10.70;99.90
37460;DHT22;23318;50.966;5.284;2022-12-29T08:13:35;10.60;99.90
37460;DHT22;23318;50.966;5.284;2022-12-29T08:16:00;10.60;99.90
37460;DHT22;23318;50.966;5.284;2022-12-29T08:18:26;10.70;99.90
37460;DHT22;23318;50.966;5.284;2022-12-29T08:20:52;10.80;99.90
37460;DHT22;23318;50.966;5.284;2022-12-29T08:23:18;10.80;99.90
37460;DHT22;23318;50.966;5.284;2022-12-29T08:25:43;10.80;99.90
37460;DHT22;23318;50.966;5.284;2022-12-29T08:28:09;10.90;99.90
37460;DHT22;23318;50.966;5.284;2022-12-29T08:30:35;10.90;99.90
37460;DHT22;23318;50.966;5.284;2022-12-29T08:33:01;10.90;99.90
37460;DHT22;23318;50.966;5.284;2022-12-29T08:35:27;10.90;99.90
37460;DHT22;23318;50.966;5.284;2022-12-29T08:37:53;11.20;99.90
37460;DHT22;23318;50.966;5.284;2022-12-29T08:40:18;11.00;99.90
37460;DHT22;23318;50.966;5.284;2022-12-29T08:42:44;11.00;99.90
37460;DHT22;23318;50.966;5.284;2022-12-29T08:45:10;11.00;99.90
37460;DHT22;23318;50.966;5.284;2022-12-29T08:47:36;11.00;99.90
37460;DHT22;23318;50.966;5.284;2022-12-29T08:50:02;11.00;99.90
37460;DHT22;23318;50.966;5.284;2022-12-29T08:52:28;11.00;99.90
37460;DHT22;23318;50.966;5.284;2022-12-29T08:54:53;11.00;99.90
37460;DHT22;23318;50.966;5.284;2022-12-29T08:57:19;10.90;99.90
37460;DHT22;23318;50.966;5.284;2022-12-29T08:59:45;10.90;99.90
37460;DHT22;23318;50.966;5.284;2022-12-29T09:02:11;10.90;99.90
37460;DHT22;23318;50.966;5.284;2022-12-29T09:04:37;11.00;99.90
37460;DHT22;23318;50.966;5.284;2022-12-29T09:07:03;11.00;99.90
37460;DHT22;23318;50.966;5.284;2022-12-29T09:09:30;11.00;99.90
37460;DHT22;23318;50.966;5.284;2022-12-29T09:11:55;11.00;99.90
37460;DHT22;23318;50.966;5.284;2022-12-29T09:14:21;10.90;99.90
37460;DHT22;23318;50.966;5.284;2022-12-29T09:16:47;11.00;99.90
37460;DHT22;23318;50.966;5.284;2022-12-29T09:19:31;10.90;99.90
37460;DHT22;23318;50.966;5.284;2022-12-29T09:21:57;10.80;99.90
37460;DHT22;23318;50.966;5.284;2022-12-29T09:24:22;10.80;99.90
37460;DHT22;23318;50.966;5.284;2022-12-29T09:26:48;10.90;99.90
37460;DHT22;23318;50.966;5.284;2022-12-29T09:29:14;10.90;99.90
37460;DHT22;23318;50.966;5.284;2022-12-29T09:31:40;10.90;99.90
37460;DHT22;23318;50.966;5.284;2022-12-29T09:34:05;10.90;99.90
37460;DHT22;23318;50.966;5.284;2022-12-29T09:36:31;10.90;99.90
37460;DHT22;23318;50.966;5.284;2022-12-29T09:38:57;10.90;99.90
37460;DHT22;23318;50.966;5.284;2022-12-29T09:41:31;11.00;99.90
37460;DHT22;23318;50.966;5.284;2022-12-29T09:43:59;11.00;99.90
37460;DHT22;23318;50.966;5.284;2022-12-29T09:46:37;11.00;99.90
37460;DHT22;23318;50.966;5.284;2022-12-29T09:51:54;11.20;99.90
37460;DHT22;23318;50.966;5.284;2022-12-29T09:54:53;11.20;99.90
37460;DHT22;23318;50.966;5.284;2022-12-29T09:57:29;11.20;99.90
37460;DHT22;23318;50.966;5.284;2022-12-29T10:00:06;11.10;99.90
37460;DHT22;23318;50.966;5.284;2022-12-29T10:02:44;11.10;99.90
37460;DHT22;23318;50.966;5.284;2022-12-29T10:05:29;11.20;99.90
37460;DHT22;23318;50.966;5.284;2022-12-29T10:08:39;11.30;99.90
37460;DHT22;23318;50.966;5.284;2022-12-29T10:11:21;11.40;99.90
37460;DHT22;23318;50.966;5.284;2022-12-29T10:21:44;11.20;99.90
37460;DHT22;23318;50.966;5.284;2022-12-29T10:24:14;11.20;99.90
37460;DHT22;23318;50.966;5.284;2022-12-29T10:26:42;11.30;99.90
37460;DHT22;23318;50.966;5.284;2022-12-29T10:29:33;11.30;99.90
37460;DHT22;23318;50.966;5.284;2022-12-29T10:32:09;11.60;99.90
37460;DHT22;23318;50.966;5.284;2022-12-29T10:34:42;11.90;99.90
37460;DHT22;23318;50.966;5.284;2022-12-29T10:39:51;11.50;99.90
37460;DHT22;23318;50.966;5.284;2022-12-29T10:42:35;11.40;99.90
37460;DHT22;23318;50.966;5.284;2022-12-29T10:45:03;11.70;99.90
37460;DHT22;23318;50.966;5.284;2022-12-29T10:47:34;12.20;99.90
37460;DHT22;23318;50.966;5.284;2022-12-29T10:50:01;12.10;99.90
37460;DHT22;23318;50.966;5.284;2022-12-29T10:52:28;12.20;99.90
37460;DHT22;23318;50.966;5.284;2022-12-29T10:55:02;12.30;99.90
37460;DHT22;23318;50.966;5.284;2022-12-29T10:57:33;12.10;99.90
37460;DHT22;23318;50.966;5.284;2022-12-29T11:00:00;12.10;99.90
37460;DHT22;23318;50.966;5.284;2022-12-29T11:05:06;12.00;99.90
37460;DHT22;23318;50.966;5.284;2022-12-29T11:07:36;12.00;99.90
37460;DHT22;23318;50.966;5.284;2022-12-29T11:10:38;11.80;99.90
37460;DHT22;23318;50.966;5.284;2022-12-29T11:13:30;11.60;99.90
37460;DHT22;23318;50.966;5.284;2022-12-29T11:15:56;11.60;99.90
37460;DHT22;23318;50.966;5.284;2022-12-29T11:18:26;11.60;99.90
37460;DHT22;23318;50.966;5.284;2022-12-29T11:20:57;11.50;99.90
37460;DHT22;23318;50.966;5.284;2022-12-29T11:26:20;11.60;99.90
37460;DHT22;23318;50.966;5.284;2022-12-29T11:29:20;11.60;99.90
37460;DHT22;23318;50.966;5.284;2022-12-29T11:31:55;11.60;99.90
37460;DHT22;23318;50.966;5.284;2022-12-29T11:34:31;11.50;99.90
37460;DHT22;23318;50.966;5.284;2022-12-29T11:37:36;11.50;99.90
37460;DHT22;23318;50.966;5.284;2022-12-29T11:40:09;11.50;99.90
37460;DHT22;23318;50.966;5.284;2022-12-29T11:42:52;11.40;99.90
37460;DHT22;23318;50.966;5.284;2022-12-29T11:45:26;11.40;99.90
37460;DHT22;23318;50.966;5.284;2022-12-29T11:48:01;11.30;99.90
37460;DHT22;23318;50.966;5.284;2022-12-29T11:50:33;11.40;99.90
37460;DHT22;23318;50.966;5.284;2022-12-29T11:55:58;11.60;99.90
37460;DHT22;23318;50.966;5.284;2022-12-29T11:58:38;11.60;99.90
37460;DHT22;23318;50.966;5.284;2022-12-29T12:04:14;11.70;99.90
37460;DHT22;23318;50.966;5.284;2022-12-29T12:09:56;12.10;99.90
37460;DHT22;23318;50.966;5.284;2022-12-29T12:12:34;13.00;99.90
37460;DHT22;23318;50.966;5.284;2022-12-29T12:15:03;13.90;99.90
37460;DHT22;23318;50.966;5.284;2022-12-29T12:17:50;14.00;99.90
37460;DHT22;23318;50.966;5.284;2022-12-29T12:20:26;13.10;99.90
37460;DHT22;23318;50.966;5.284;2022-12-29T12:25:34;12.70;99.90
37460;DHT22;23318;50.966;5.284;2022-12-29T12:28:20;12.50;99.90
37460;DHT22;23318;50.966;5.284;2022-12-29T12:30:48;12.10;99.90
37460;DHT22;23318;50.966;5.284;2022-12-29T12:33:22;11.90;99.90
37460;DHT22;23318;50.966;5.284;2022-12-29T12:38:48;11.60;99.90
37460;DHT22;23318;50.966;5.284;2022-12-29T12:41:31;11.50;99.90
37460;DHT22;23318;50.966;5.284;2022-12-29T12:44:15;11.60;99.90
37460;DHT22;23318;50.966;5.284;2022-12-29T13:00:18;11.40;99.90
37460;DHT22;23318;50.966;5.284;2022-12-29T13:08:55;11.40;99.90
37460;DHT22;23318;50.966;5.284;2022-12-29T13:14:49;11.20;99.90
37460;DHT22;23318;50.966;5.284;2022-12-29T13:17:32;11.30;99.90
37460;DHT22;23318;50.966;5.284;2022-12-29T13:22:54;11.30;99.90
37460;DHT22;23318;50.966;5.284;2022-12-29T13:25:42;11.30;99.90
37460;DHT22;23318;50.966;5.284;2022-12-29T13:36:07;11.40;99.90
37460;DHT22;23318;50.966;5.284;2022-12-29T13:38:43;11.40;99.90
37460;DHT22;23318;50.966;5.284;2022-12-29T13:41:32;11.30;99.90
37460;DHT22;23318;50.966;5.284;2022-12-29T13:44:02;11.30;99.90
37460;DHT22;23318;50.966;5.284;2022-12-29T13:46:33;11.30;99.90
37460;DHT22;23318;50.966;5.284;2022-12-29T13:49:18;11.20;99.90
37460;DHT22;23318;50.966;5.284;2022-12-29T13:51:52;11.20;99.90
37460;DHT22;23318;50.966;5.284;2022-12-29T13:57:20;11.10;99.90
37460;DHT22;23318;50.966;5.284;2022-12-29T13:59:59;11.10;99.90
37460;DHT22;23318;50.966;5.284;2022-12-29T14:07:57;11.10;99.90
37460;DHT22;23318;50.966;5.284;2022-12-29T14:15:51;10.80;99.90
37460;DHT22;23318;50.966;5.284;2022-12-29T14:18:22;10.70;99.90
37460;DHT22;23318;50.966;5.284;2022-12-29T14:28:53;10.40;99.90
37460;DHT22;23318;50.966;5.284;2022-12-29T14:36:37;10.20;99.90
37460;DHT22;23318;50.966;5.284;2022-12-29T14:44:30;9.70;99.90
37460;DHT22;23318;50.966;5.284;2022-12-29T14:47:04;9.80;99.90
37460;DHT22;23318;50.966;5.284;2022-12-29T14:49:41;9.90;99.90
37460;DHT22;23318;50.966;5.284;2022-12-29T14:52:22;9.70;99.90
37460;DHT22;23318;50.966;5.284;2022-12-29T14:54:57;9.60;99.90
37460;DHT22;23318;50.966;5.284;2022-12-29T14:57:36;9.50;99.90
37460;DHT22;23318;50.966;5.284;2022-12-29T15:00:30;9.60;99.90
37460;DHT22;23318;50.966;5.284;2022-12-29T15:03:17;9.60;99.90
37460;DHT22;23318;50.966;5.284;2022-12-29T15:08:17;9.60;99.90
37460;DHT22;23318;50.966;5.284;2022-12-29T15:10:52;9.60;99.90
37460;DHT22;23318;50.966;5.284;2022-12-29T15:13:23;9.50;99.90
37460;DHT22;23318;50.966;5.284;2022-12-29T15:15:50;9.50;99.90
37460;DHT22;23318;50.966;5.284;2022-12-29T15:18:22;9.70;99.90
37460;DHT22;23318;50.966;5.284;2022-12-29T15:20:53;9.70;99.90
37460;DHT22;23318;50.966;5.284;2022-12-29T15:23:20;9.70;99.90
37460;DHT22;23318;50.966;5.284;2022-12-29T15:25:57;9.70;99.90
37460;DHT22;23318;50.966;5.284;2022-12-29T15:28:25;9.80;99.90
37460;DHT22;23318;50.966;5.284;2022-12-29T15:30:56;9.80;99.90
37460;DHT22;23318;50.966;5.284;2022-12-29T15:33:24;9.90;99.90
37460;DHT22;23318;50.966;5.284;2022-12-29T15:35:52;10.00;99.90
37460;DHT22;23318;50.966;5.284;2022-12-29T15:38:24;10.00;99.90
37460;DHT22;23318;50.966;5.284;2022-12-29T15:41:02;9.80;99.90
37460;DHT22;23318;50.966;5.284;2022-12-29T15:44:23;9.70;99.90
37460;DHT22;23318;50.966;5.284;2022-12-29T15:46:40;9.60;99.90
37460;DHT22;23318;50.966;5.284;2022-12-29T15:49:08;9.50;99.90
37460;DHT22;23318;50.966;5.284;2022-12-29T15:51:38;9.50;99.90
37460;DHT22;23318;50.966;5.284;2022-12-29T15:54:05;9.50;99.90
37460;DHT22;23318;50.966;5.284;2022-12-29T15:56:32;9.40;99.90
37460;DHT22;23318;50.966;5.284;2022-12-29T15:59:00;9.50;99.90
37460;DHT22;23318;50.966;5.284;2022-12-29T16:01:32;9.40;99.90
37460;DHT22;23318;50.966;5.284;2022-12-29T16:03:59;9.50;99.90
37460;DHT22;23318;50.966;5.284;2022-12-29T16:06:37;9.50;99.90
37460;DHT22;23318;50.966;5.284;2022-12-29T16:09:15;9.50;99.90
37460;DHT22;23318;50.966;5.284;2022-12-29T16:11:47;9.50;99.90
37460;DHT22;23318;50.966;5.284;2022-12-29T16:14:19;9.30;99.90
37460;DHT22;23318;50.966;5.284;2022-12-29T16:16:47;9.10;99.90
37460;DHT22;23318;50.966;5.284;2022-12-29T16:19:24;8.60;99.90
37460;DHT22;23318;50.966;5.284;2022-12-29T16:21:52;8.10;99.90
37460;DHT22;23318;50.966;5.284;2022-12-29T16:24:21;7.80;99.90
37460;DHT22;23318;50.966;5.284;2022-12-29T16:27:02;7.60;99.90
37460;DHT22;23318;50.966;5.284;2022-12-29T16:29:29;7.60;99.90
37460;DHT22;23318;50.966;5.284;2022-12-29T16:31:58;7.60;99.90
37460;DHT22;23318;50.966;5.284;2022-12-29T16:37:27;7.50;99.90
37460;DHT22;23318;50.966;5.284;2022-12-29T16:39:53;7.50;99.90
37460;DHT22;23318;50.966;5.284;2022-12-29T16:47:38;7.70;99.90
37460;DHT22;23318;50.966;5.284;2022-12-29T16:50:15;7.60;99.90
37460;DHT22;23318;50.966;5.284;2022-12-29T16:52:43;7.50;99.90
37460;DHT22;23318;50.966;5.284;2022-12-29T16:55:17;7.50;99.90
37460;DHT22;23318;50.966;5.284;2022-12-29T16:57:44;7.50;99.90
37460;DHT22;23318;50.966;5.284;2022-12-29T17:00:25;7.50;99.90
37460;DHT22;23318;50.966;5.284;2022-12-29T17:02:57;7.40;99.90
37460;DHT22;23318;50.966;5.284;2022-12-29T17:05:24;7.40;99.90
37460;DHT22;23318;50.966;5.284;2022-12-29T17:07:49;7.50;99.90
37460;DHT22;23318;50.966;5.284;2022-12-29T17:10:16;7.40;99.90
37460;DHT22;23318;50.966;5.284;2022-12-29T17:12:44;7.40;99.90
37460;DHT22;23318;50.966;5.284;2022-12-29T17:17:45;7.50;99.90
37460;DHT22;23318;50.966;5.284;2022-12-29T17:22:42;7.60;99.90
37460;DHT22;23318;50.966;5.284;2022-12-29T17:25:11;7.60;99.90
37460;DHT22;23318;50.966;5.284;2022-12-29T17:27:42;7.50;99.90
37460;DHT22;23318;50.966;5.284;2022-12-29T17:30:12;7.60;99.90
37460;DHT22;23318;50.966;5.284;2022-12-29T17:32:45;7.60;99.90
37460;DHT22;23318;50.966;5.284;2022-12-29T17:35:15;7.60;99.90
37460;DHT22;23318;50.966;5.284;2022-12-29T17:37:41;7.60;99.90
37460;DHT22;23318;50.966;5.284;2022-12-29T17:40:14;7.60;99.90
37460;DHT22;23318;50.966;5.284;2022-12-29T17:42:48;7.70;99.90
37460;DHT22;23318;50.966;5.284;2022-12-29T17:45:20;7.70;99.90
37460;DHT22;23318;50.966;5.284;2022-12-29T17:47:46;7.70;99.90
37460;DHT22;23318;50.966;5.284;2022-12-29T17:50:18;7.70;99.90
37460;DHT22;23318;50.966;5.284;2022-12-29T17:52:49;7.70;99.90
37460;DHT22;23318;50.966;5.284;2022-12-29T17:55:18;7.80;99.90
37460;DHT22;23318;50.966;5.284;2022-12-29T17:57:44;7.80;99.90
37460;DHT22;23318;50.966;5.284;2022-12-29T18:00:17;7.80;99.90
37460;DHT22;23318;50.966;5.284;2022-12-29T18:02:43;7.80;99.90
37460;DHT22;23318;50.966;5.284;2022-12-29T18:05:16;7.80;99.90
37460;DHT22;23318;50.966;5.284;2022-12-29T18:07:42;7.80;99.90
37460;DHT22;23318;50.966;5.284;2022-12-29T18:10:08;7.70;99.90
37460;DHT22;23318;50.966;5.284;2022-12-29T18:12:39;7.70;99.90
37460;DHT22;23318;50.966;5.284;2022-12-29T18:15:06;7.70;99.90
37460;DHT22;23318;50.966;5.284;2022-12-29T18:17:32;7.60;99.90
37460;DHT22;23318;50.966;5.284;2022-12-29T18:19:58;7.60;99.90
37460;DHT22;23318;50.966;5.284;2022-12-29T18:22:25;7.60;99.90
37460;DHT22;23318;50.966;5.284;2022-12-29T18:24:53;7.60;99.90
37460;DHT22;23318;50.966;5.284;2022-12-29T18:27:19;7.60;99.90
37460;DHT22;23318;50.966;5.284;2022-12-29T18:29:47;7.50;99.90